sensor_id;sensor_type;location;lat;lon;timestamp;P1;durP1;ratioP1;P2;durP2;ratioP2
46815;SDS011;32787;53.316;8.670;2022-09-17T00:02:17;18.90;;;2.92;;
46815;SDS011;32787;53.316;8.670;2022-09-17T00:04:43;22.20;;;3.20;;
46815;SDS011;32787;53.316;8.670;2022-09-17T00:07:11;17.08;;;2.80;;
46815;SDS011;32787;53.316;8.670;2022-09-17T00:09:36;19.10;;;3.15;;
46815;SDS011;32787;53.316;8.670;2022-09-17T00:12:02;20.88;;;3.25;;
46815;SDS011;32787;53.316;8.670;2022-09-17T00:14:28;21.05;;;2.90;;
46815;SDS011;32787;53.316;8.670;2022-09-17T00:16:54;30.40;;;3.53;;
46815;SDS011;32787;53.316;8.670;2022-09-17T00:19:20;22.15;;;3.13;;
46815;SDS011;32787;53.316;8.670;2022-09-17T00:21:47;24.33;;;3.70;;
46815;SDS011;32787;53.316;8.670;2022-09-17T00:24:13;20.48;;;3.70;;
46815;SDS011;32787;53.316;8.670;2022-09-17T00:26:40;28.67;;;3.13;;
46815;SDS011;32787;53.316;8.670;2022-09-17T00:29:07;25.00;;;3.75;;
46815;SDS011;32787;53.316;8.670;2022-09-17T00:31:34;23.00;;;2.78;;
46815;SDS011;32787;53.316;8.670;2022-09-17T00:34:00;20.80;;;3.05;;
46815;SDS011;32787;53.316;8.670;2022-09-17T00:36:27;25.33;;;3.15;;
46815;SDS011;32787;53.316;8.670;2022-09-17T00:38:53;29.42;;;3.25;;
46815;SDS011;32787;53.316;8.670;2022-09-17T00:41:21;36.28;;;4.57;;
46815;SDS011;32787;53.316;8.670;2022-09-17T00:43:50;25.90;;;3.75;;
46815;SDS011;32787;53.316;8.670;2022-09-17T00:46:27;21.65;;;2.95;;
46815;SDS011;32787;53.316;8.670;2022-09-17T00:49:26;21.25;;;2.30;;
46815;SDS011;32787;53.316;8.670;2022-09-17T00:52:04;19.65;;;3.65;;
46815;SDS011;32787;53.316;8.670;2022-09-17T00:54:32;22.83;;;4.32;;
46815;SDS011;32787;53.316;8.670;2022-09-17T00:57:00;22.33;;;2.83;;
46815;SDS011;32787;53.316;8.670;2022-09-17T00:59:27;18.85;;;3.13;;
46815;SDS011;32787;53.316;8.670;2022-09-17T01:01:53;19.20;;;2.97;;
46815;SDS011;32787;53.316;8.670;2022-09-17T01:04:19;25.48;;;3.15;;
46815;SDS011;32787;53.316;8.670;2022-09-17T01:06:51;18.73;;;2.65;;
46815;SDS011;32787;53.316;8.670;2022-09-17T01:15:45;24.17;;;3.78;;
46815;SDS011;32787;53.316;8.670;2022-09-17T01:23:55;24.85;;;3.15;;
46815;SDS011;32787;53.316;8.670;2022-09-17T01:32:22;18.85;;;2.88;;
46815;SDS011;32787;53.316;8.670;2022-09-17T01:37:34;16.05;;;2.72;;
46815;SDS011;32787;53.316;8.670;2022-09-17T01:40:07;19.35;;;2.42;;
46815;SDS011;32787;53.316;8.670;2022-09-17T01:45:34;22.83;;;2.70;;
46815;SDS011;32787;53.316;8.670;2022-09-17T01:48:22;24.42;;;3.03;;
46815;SDS011;32787;53.316;8.670;2022-09-17T01:56:30;17.48;;;1.98;;
46815;SDS011;32787;53.316;8.670;2022-09-17T01:59:18;15.07;;;2.05;;
46815;SDS011;32787;53.316;8.670;2022-09-17T02:02:07;13.95;;;2.38;;
46815;SDS011;32787;53.316;8.670;2022-09-17T02:04:42;17.20;;;2.85;;
46815;SDS011;32787;53.316;8.670;2022-09-17T02:07:17;16.65;;;2.30;;
46815;SDS011;32787;53.316;8.670;2022-09-17T02:12:30;18.83;;;2.20;;
46815;SDS011;32787;53.316;8.670;2022-09-17T02:15:01;20.63;;;2.15;;
46815;SDS011;32787;53.316;8.670;2022-09-17T02:20:02;18.50;;;2.53;;
46815;SDS011;32787;53.316;8.670;2022-09-17T02:22:31;16.08;;;2.40;;
46815;SDS011;32787;53.316;8.670;2022-09-17T02:30:21;11.85;;;2.25;;
46815;SDS011;32787;53.316;8.670;2022-09-17T02:32:47;16.77;;;1.70;;
46815;SDS011;32787;53.316;8.670;2022-09-17T02:35:13;14.50;;;1.63;;
46815;SDS011;32787;53.316;8.670;2022-09-17T02:37:42;20.55;;;2.22;;
46815;SDS011;32787;53.316;8.670;2022-09-17T02:40:11;18.38;;;3.10;;
46815;SDS011;32787;53.316;8.670;2022-09-17T02:42:49;16.70;;;2.03;;
46815;SDS011;32787;53.316;8.670;2022-09-17T02:45:24;11.73;;;1.98;;
46815;SDS011;32787;53.316;8.670;2022-09-17T02:53:30;13.13;;;1.80;;
46815;SDS011;32787;53.316;8.670;2022-09-17T02:56:13;13.02;;;1.77;;
46815;SDS011;32787;53.316;8.670;2022-09-17T03:01:38;18.65;;;3.30;;
46815;SDS011;32787;53.316;8.670;2022-09-17T03:04:09;14.80;;;1.70;;
46815;SDS011;32787;53.316;8.670;2022-09-17T03:06:40;13.68;;;1.67;;
46815;SDS011;32787;53.316;8.670;2022-09-17T03:09:07;13.60;;;1.95;;
46815;SDS011;32787;53.316;8.670;2022-09-17T03:11:33;13.10;;;2.10;;
46815;SDS011;32787;53.316;8.670;2022-09-17T03:13:59;16.67;;;2.20;;
46815;SDS011;32787;53.316;8.670;2022-09-17T03:16:24;20.33;;;2.40;;
46815;SDS011;32787;53.316;8.670;2022-09-17T03:18:50;13.30;;;2.15;;
46815;SDS011;32787;53.316;8.670;2022-09-17T03:21:15;18.13;;;2.05;;
46815;SDS011;32787;53.316;8.670;2022-09-17T03:23:41;17.85;;;2.10;;
46815;SDS011;32787;53.316;8.670;2022-09-17T03:26:07;14.23;;;2.03;;
46815;SDS011;32787;53.316;8.670;2022-09-17T03:28:33;18.63;;;2.47;;
46815;SDS011;32787;53.316;8.670;2022-09-17T03:30:59;21.60;;;2.28;;
46815;SDS011;32787;53.316;8.670;2022-09-17T03:33:25;18.92;;;2.75;;
46815;SDS011;32787;53.316;8.670;2022-09-17T03:35:50;17.33;;;2.33;;
46815;SDS011;32787;53.316;8.670;2022-09-17T03:38:16;16.58;;;2.13;;
46815;SDS011;32787;53.316;8.670;2022-09-17T03:40:42;13.18;;;2.22;;
46815;SDS011;32787;53.316;8.670;2022-09-17T03:43:08;19.98;;;2.60;;
46815;SDS011;32787;53.316;8.670;2022-09-17T03:45:33;18.35;;;2.20;;
46815;SDS011;32787;53.316;8.670;2022-09-17T03:47:59;14.60;;;2.05;;
46815;SDS011;32787;53.316;8.670;2022-09-17T03:50:25;18.05;;;2.67;;
46815;SDS011;32787;53.316;8.670;2022-09-17T03:52:50;13.00;;;2.05;;
46815;SDS011;32787;53.316;8.670;2022-09-17T03:55:16;12.50;;;2.15;;
46815;SDS011;32787;53.316;8.670;2022-09-17T03:57:42;15.85;;;1.98;;
46815;SDS011;32787;53.316;8.670;2022-09-17T04:00:08;16.30;;;2.10;;
46815;SDS011;32787;53.316;8.670;2022-09-17T04:02:36;19.75;;;2.50;;
46815;SDS011;32787;53.316;8.670;2022-09-17T04:05:01;15.23;;;2.08;;
46815;SDS011;32787;53.316;8.670;2022-09-17T04:07:27;15.60;;;2.25;;
46815;SDS011;32787;53.316;8.670;2022-09-17T04:09:52;11.60;;;1.65;;
46815;SDS011;32787;53.316;8.670;2022-09-17T04:12:18;19.20;;;2.72;;
46815;SDS011;32787;53.316;8.670;2022-09-17T04:14:44;18.10;;;2.33;;
46815;SDS011;32787;53.316;8.670;2022-09-17T04:17:09;16.40;;;1.88;;
46815;SDS011;32787;53.316;8.670;2022-09-17T04:19:36;12.85;;;2.15;;
46815;SDS011;32787;53.316;8.670;2022-09-17T04:22:01;16.70;;;2.13;;
46815;SDS011;32787;53.316;8.670;2022-09-17T04:24:27;10.70;;;2.40;;
46815;SDS011;32787;53.316;8.670;2022-09-17T04:26:53;13.98;;;2.20;;
46815;SDS011;32787;53.316;8.670;2022-09-17T04:29:18;15.73;;;2.05;;
46815;SDS011;32787;53.316;8.670;2022-09-17T04:31:44;11.18;;;1.50;;
46815;SDS011;32787;53.316;8.670;2022-09-17T04:34:10;12.10;;;1.85;;
46815;SDS011;32787;53.316;8.670;2022-09-17T04:36:35;11.02;;;1.45;;
46815;SDS011;32787;53.316;8.670;2022-09-17T04:39:01;9.60;;;1.77;;
46815;SDS011;32787;53.316;8.670;2022-09-17T04:41:26;12.93;;;2.03;;
46815;SDS011;32787;53.316;8.670;2022-09-17T04:43:52;12.32;;;2.47;;
46815;SDS011;32787;53.316;8.670;2022-09-17T04:46:18;16.23;;;2.53;;
46815;SDS011;32787;53.316;8.670;2022-09-17T04:48:43;9.32;;;1.77;;
46815;SDS011;32787;53.316;8.670;2022-09-17T04:51:09;15.68;;;2.10;;
46815;SDS011;32787;53.316;8.670;2022-09-17T04:53:35;14.20;;;1.98;;
46815;SDS011;32787;53.316;8.670;2022-09-17T04:56:02;11.70;;;1.70;;
46815;SDS011;32787;53.316;8.670;2022-09-17T04:58:28;11.38;;;1.80;;
46815;SDS011;32787;53.316;8.670;2022-09-17T05:00:55;14.05;;;2.15;;
46815;SDS011;32787;53.316;8.670;2022-09-17T05:03:21;9.57;;;1.63;;
46815;SDS011;32787;53.316;8.670;2022-09-17T05:05:46;15.55;;;1.73;;
46815;SDS011;32787;53.316;8.670;2022-09-17T05:08:12;9.45;;;1.20;;
46815;SDS011;32787;53.316;8.670;2022-09-17T05:10:37;13.30;;;1.77;;
46815;SDS011;32787;53.316;8.670;2022-09-17T05:13:03;9.95;;;1.63;;
46815;SDS011;32787;53.316;8.670;2022-09-17T05:15:29;13.10;;;1.80;;
46815;SDS011;32787;53.316;8.670;2022-09-17T05:17:55;10.18;;;1.45;;
46815;SDS011;32787;53.316;8.670;2022-09-17T05:20:21;18.92;;;1.80;;
46815;SDS011;32787;53.316;8.670;2022-09-17T05:22:47;12.93;;;1.85;;
46815;SDS011;32787;53.316;8.670;2022-09-17T05:25:17;11.70;;;1.98;;
46815;SDS011;32787;53.316;8.670;2022-09-17T05:27:44;14.40;;;1.67;;
46815;SDS011;32787;53.316;8.670;2022-09-17T05:30:10;17.60;;;1.80;;
46815;SDS011;32787;53.316;8.670;2022-09-17T05:32:37;13.27;;;1.90;;
46815;SDS011;32787;53.316;8.670;2022-09-17T05:35:03;15.60;;;3.40;;
46815;SDS011;32787;53.316;8.670;2022-09-17T05:37:30;12.75;;;1.80;;
46815;SDS011;32787;53.316;8.670;2022-09-17T05:39:55;14.98;;;1.90;;
46815;SDS011;32787;53.316;8.670;2022-09-17T05:42:21;11.23;;;2.33;;
46815;SDS011;32787;53.316;8.670;2022-09-17T05:44:47;17.10;;;2.63;;
46815;SDS011;32787;53.316;8.670;2022-09-17T05:47:12;19.63;;;1.75;;
46815;SDS011;32787;53.316;8.670;2022-09-17T05:49:38;15.27;;;2.15;;
46815;SDS011;32787;53.316;8.670;2022-09-17T05:52:04;17.23;;;2.78;;
46815;SDS011;32787;53.316;8.670;2022-09-17T05:54:30;17.02;;;2.25;;
46815;SDS011;32787;53.316;8.670;2022-09-17T05:56:55;20.85;;;2.72;;
46815;SDS011;32787;53.316;8.670;2022-09-17T05:59:21;20.30;;;2.53;;
46815;SDS011;32787;53.316;8.670;2022-09-17T06:01:47;14.63;;;1.83;;
46815;SDS011;32787;53.316;8.670;2022-09-17T06:04:14;16.20;;;2.20;;
46815;SDS011;32787;53.316;8.670;2022-09-17T06:06:41;13.88;;;2.20;;
46815;SDS011;32787;53.316;8.670;2022-09-17T06:09:07;15.25;;;2.58;;
46815;SDS011;32787;53.316;8.670;2022-09-17T06:11:34;12.98;;;2.22;;
46815;SDS011;32787;53.316;8.670;2022-09-17T06:14:01;17.08;;;2.67;;
46815;SDS011;32787;53.316;8.670;2022-09-17T06:16:28;14.40;;;2.40;;
46815;SDS011;32787;53.316;8.670;2022-09-17T06:18:53;15.27;;;1.70;;
46815;SDS011;32787;53.316;8.670;2022-09-17T06:21:20;16.85;;;2.20;;
46815;SDS011;32787;53.316;8.670;2022-09-17T06:23:47;16.20;;;2.10;;
46815;SDS011;32787;53.316;8.670;2022-09-17T06:26:14;16.92;;;2.17;;
46815;SDS011;32787;53.316;8.670;2022-09-17T06:28:39;17.50;;;2.00;;
46815;SDS011;32787;53.316;8.670;2022-09-17T06:31:06;15.50;;;3.17;;
46815;SDS011;32787;53.316;8.670;2022-09-17T06:33:32;12.15;;;2.33;;
46815;SDS011;32787;53.316;8.670;2022-09-17T06:36:00;18.13;;;2.20;;
46815;SDS011;32787;53.316;8.670;2022-09-17T06:38:32;20.00;;;2.70;;
46815;SDS011;32787;53.316;8.670;2022-09-17T06:40:58;16.48;;;2.55;;
46815;SDS011;32787;53.316;8.670;2022-09-17T06:43:24;13.65;;;1.90;;
46815;SDS011;32787;53.316;8.670;2022-09-17T06:45:57;22.52;;;2.30;;
46815;SDS011;32787;53.316;8.670;2022-09-17T06:48:24;15.32;;;1.85;;
46815;SDS011;32787;53.316;8.670;2022-09-17T06:50:53;11.23;;;1.80;;
46815;SDS011;32787;53.316;8.670;2022-09-17T06:53:20;25.48;;;3.17;;
46815;SDS011;32787;53.316;8.670;2022-09-17T06:55:47;19.13;;;2.72;;
46815;SDS011;32787;53.316;8.670;2022-09-17T06:58:13;23.10;;;2.63;;
46815;SDS011;32787;53.316;8.670;2022-09-17T07:00:39;21.08;;;2.80;;
46815;SDS011;32787;53.316;8.670;2022-09-17T07:03:04;19.40;;;2.55;;
46815;SDS011;32787;53.316;8.670;2022-09-17T07:05:30;14.40;;;2.33;;
46815;SDS011;32787;53.316;8.670;2022-09-17T07:07:59;10.80;;;1.85;;
46815;SDS011;32787;53.316;8.670;2022-09-17T07:10:26;17.95;;;2.50;;
46815;SDS011;32787;53.316;8.670;2022-09-17T07:12:52;17.52;;;2.50;;
46815;SDS011;32787;53.316;8.670;2022-09-17T07:15:18;17.73;;;2.50;;
46815;SDS011;32787;53.316;8.670;2022-09-17T07:17:45;12.75;;;1.88;;
46815;SDS011;32787;53.316;8.670;2022-09-17T07:20:11;17.65;;;2.25;;
46815;SDS011;32787;53.316;8.670;2022-09-17T07:22:36;17.60;;;2.40;;
46815;SDS011;32787;53.316;8.670;2022-09-17T07:25:02;15.98;;;1.95;;
46815;SDS011;32787;53.316;8.670;2022-09-17T07:27:29;13.38;;;1.92;;
46815;SDS011;32787;53.316;8.670;2022-09-17T07:29:55;10.55;;;2.05;;
46815;SDS011;32787;53.316;8.670;2022-09-17T07:32:21;19.35;;;2.40;;
46815;SDS011;32787;53.316;8.670;2022-09-17T07:34:47;13.75;;;1.88;;
46815;SDS011;32787;53.316;8.670;2022-09-17T07:37:16;19.52;;;2.33;;
46815;SDS011;32787;53.316;8.670;2022-09-17T07:39:42;17.73;;;2.38;;
46815;SDS011;32787;53.316;8.670;2022-09-17T07:42:09;11.82;;;1.95;;
46815;SDS011;32787;53.316;8.670;2022-09-17T07:44:35;13.23;;;2.13;;
46815;SDS011;32787;53.316;8.670;2022-09-17T07:47:01;17.77;;;1.95;;
46815;SDS011;32787;53.316;8.670;2022-09-17T07:49:27;16.35;;;2.10;;
46815;SDS011;32787;53.316;8.670;2022-09-17T07:51:53;16.08;;;2.03;;
46815;SDS011;32787;53.316;8.670;2022-09-17T07:54:19;10.10;;;1.92;;
46815;SDS011;32787;53.316;8.670;2022-09-17T07:56:45;10.55;;;1.45;;
46815;SDS011;32787;53.316;8.670;2022-09-17T07:59:11;8.70;;;1.40;;
46815;SDS011;32787;53.316;8.670;2022-09-17T08:01:36;8.75;;;1.73;;
46815;SDS011;32787;53.316;8.670;2022-09-17T08:04:03;11.57;;;1.42;;
46815;SDS011;32787;53.316;8.670;2022-09-17T08:06:30;12.90;;;1.58;;
46815;SDS011;32787;53.316;8.670;2022-09-17T08:08:56;8.82;;;1.48;;
46815;SDS011;32787;53.316;8.670;2022-09-17T08:11:27;9.50;;;1.20;;
46815;SDS011;32787;53.316;8.670;2022-09-17T08:13:54;13.02;;;1.50;;
46815;SDS011;32787;53.316;8.670;2022-09-17T08:16:20;10.40;;;1.50;;
46815;SDS011;32787;53.316;8.670;2022-09-17T08:18:47;9.65;;;1.35;;
46815;SDS011;32787;53.316;8.670;2022-09-17T08:21:15;13.05;;;1.55;;
46815;SDS011;32787;53.316;8.670;2022-09-17T08:23:42;14.68;;;2.35;;
46815;SDS011;32787;53.316;8.670;2022-09-17T08:26:13;8.63;;;1.10;;
46815;SDS011;32787;53.316;8.670;2022-09-17T08:28:44;17.27;;;2.42;;
46815;SDS011;32787;53.316;8.670;2022-09-17T08:31:12;9.93;;;1.80;;
46815;SDS011;32787;53.316;8.670;2022-09-17T08:33:39;6.13;;;1.25;;
46815;SDS011;32787;53.316;8.670;2022-09-17T08:36:06;14.63;;;2.00;;
46815;SDS011;32787;53.316;8.670;2022-09-17T08:38:34;11.52;;;1.30;;
46815;SDS011;32787;53.316;8.670;2022-09-17T08:46:25;9.70;;;1.30;;
46815;SDS011;32787;53.316;8.670;2022-09-17T08:49:00;10.85;;;1.52;;
46815;SDS011;32787;53.316;8.670;2022-09-17T09:03:15;3.90;;;0.75;;
46815;SDS011;32787;53.316;8.670;2022-09-17T09:05:47;8.05;;;1.13;;
46815;SDS011;32787;53.316;8.670;2022-09-17T09:08:30;8.00;;;1.17;;
46815;SDS011;32787;53.316;8.670;2022-09-17T09:11:05;10.13;;;1.08;;
46815;SDS011;32787;53.316;8.670;2022-09-17T09:13:39;8.30;;;1.13;;
46815;SDS011;32787;53.316;8.670;2022-09-17T09:16:11;6.57;;;0.77;;
46815;SDS011;32787;53.316;8.670;2022-09-17T09:18:41;9.65;;;1.25;;
46815;SDS011;32787;53.316;8.670;2022-09-17T09:23:52;8.23;;;0.98;;
46815;SDS011;32787;53.316;8.670;2022-09-17T09:26:42;9.27;;;1.20;;
46815;SDS011;32787;53.316;8.670;2022-09-17T09:34:46;11.68;;;1.60;;
46815;SDS011;32787;53.316;8.670;2022-09-17T09:37:23;17.35;;;1.80;;
46815;SDS011;32787;53.316;8.670;2022-09-17T09:39:52;9.73;;;1.38;;
46815;SDS011;32787;53.316;8.670;2022-09-17T09:42:32;9.20;;;1.35;;
46815;SDS011;32787;53.316;8.670;2022-09-17T09:55:41;5.43;;;0.95;;
46815;SDS011;32787;53.316;8.670;2022-09-17T09:58:20;8.48;;;1.30;;
46815;SDS011;32787;53.316;8.670;2022-09-17T10:01:02;6.55;;;1.17;;
46815;SDS011;32787;53.316;8.670;2022-09-17T10:03:39;11.98;;;1.00;;
46815;SDS011;32787;53.316;8.670;2022-09-17T10:06:09;6.70;;;0.77;;
46815;SDS011;32787;53.316;8.670;2022-09-17T10:08:37;8.48;;;1.20;;
46815;SDS011;32787;53.316;8.670;2022-09-17T10:13:34;11.27;;;1.33;;
46815;SDS011;32787;53.316;8.670;2022-09-17T10:16:14;14.00;;;1.30;;
46815;SDS011;32787;53.316;8.670;2022-09-17T10:18:40;8.68;;;1.10;;
46815;SDS011;32787;53.316;8.670;2022-09-17T10:21:07;8.45;;;1.30;;
46815;SDS011;32787;53.316;8.670;2022-09-17T10:23:56;10.63;;;1.10;;
46815;SDS011;32787;53.316;8.670;2022-09-17T10:26:26;9.70;;;1.40;;
46815;SDS011;32787;53.316;8.670;2022-09-17T10:28:58;14.32;;;1.73;;
46815;SDS011;32787;53.316;8.670;2022-09-17T10:31:26;10.38;;;1.63;;
46815;SDS011;32787;53.316;8.670;2022-09-17T10:34:11;12.27;;;2.15;;
46815;SDS011;32787;53.316;8.670;2022-09-17T10:36:44;12.68;;;1.33;;
46815;SDS011;32787;53.316;8.670;2022-09-17T10:39:30;14.65;;;1.80;;
46815;SDS011;32787;53.316;8.670;2022-09-17T10:42:02;9.77;;;1.27;;
46815;SDS011;32787;53.316;8.670;2022-09-17T10:44:30;9.35;;;1.88;;
46815;SDS011;32787;53.316;8.670;2022-09-17T10:47:04;9.90;;;1.67;;
46815;SDS011;32787;53.316;8.670;2022-09-17T10:49:48;12.98;;;1.88;;
46815;SDS011;32787;53.316;8.670;2022-09-17T10:54:51;13.82;;;1.48;;
46815;SDS011;32787;53.316;8.670;2022-09-17T11:00:12;12.15;;;1.65;;
46815;SDS011;32787;53.316;8.670;2022-09-17T11:02:55;13.68;;;1.73;;
46815;SDS011;32787;53.316;8.670;2022-09-17T11:08:43;7.53;;;1.35;;
46815;SDS011;32787;53.316;8.670;2022-09-17T11:11:28;9.25;;;1.33;;
46815;SDS011;32787;53.316;8.670;2022-09-17T11:19:48;11.82;;;1.20;;
46815;SDS011;32787;53.316;8.670;2022-09-17T11:22:22;7.90;;;1.30;;
46815;SDS011;32787;53.316;8.670;2022-09-17T11:35:37;13.77;;;1.50;;
46815;SDS011;32787;53.316;8.670;2022-09-17T11:38:17;11.75;;;1.60;;
46815;SDS011;32787;53.316;8.670;2022-09-17T11:40:56;19.42;;;1.63;;
46815;SDS011;32787;53.316;8.670;2022-09-17T11:43:49;13.23;;;1.70;;
46815;SDS011;32787;53.316;8.670;2022-09-17T11:46:33;13.75;;;2.08;;
46815;SDS011;32787;53.316;8.670;2022-09-17T11:49:24;12.25;;;1.50;;
46815;SDS011;32787;53.316;8.670;2022-09-17T11:51:56;13.10;;;1.60;;
46815;SDS011;32787;53.316;8.670;2022-09-17T11:54:28;11.18;;;1.42;;
46815;SDS011;32787;53.316;8.670;2022-09-17T11:57:11;10.27;;;1.75;;
46815;SDS011;32787;53.316;8.670;2022-09-17T12:08:08;12.93;;;1.77;;
46815;SDS011;32787;53.316;8.670;2022-09-17T12:15:54;9.85;;;1.27;;
46815;SDS011;32787;53.316;8.670;2022-09-17T12:18:47;14.25;;;1.75;;
46815;SDS011;32787;53.316;8.670;2022-09-17T12:21:59;16.55;;;1.77;;
46815;SDS011;32787;53.316;8.670;2022-09-17T12:24:33;16.05;;;1.63;;
46815;SDS011;32787;53.316;8.670;2022-09-17T12:27:02;14.40;;;1.95;;
46815;SDS011;32787;53.316;8.670;2022-09-17T12:29:31;17.38;;;1.40;;
46815;SDS011;32787;53.316;8.670;2022-09-17T12:43:49;18.08;;;2.55;;
46815;SDS011;32787;53.316;8.670;2022-09-17T12:46:34;13.00;;;1.95;;
46815;SDS011;32787;53.316;8.670;2022-09-17T12:57:56;21.52;;;2.45;;
46815;SDS011;32787;53.316;8.670;2022-09-17T13:00:33;25.30;;;2.75;;
46815;SDS011;32787;53.316;8.670;2022-09-17T13:03:22;18.75;;;2.53;;
46815;SDS011;32787;53.316;8.670;2022-09-17T13:19:29;11.90;;;1.80;;
46815;SDS011;32787;53.316;8.670;2022-09-17T13:22:08;13.38;;;2.60;;
46815;SDS011;32787;53.316;8.670;2022-09-17T13:24:42;8.13;;;1.27;;
46815;SDS011;32787;53.316;8.670;2022-09-17T13:27:18;12.13;;;1.48;;
46815;SDS011;32787;53.316;8.670;2022-09-17T13:37:34;10.50;;;1.40;;
46815;SDS011;32787;53.316;8.670;2022-09-17T13:40:02;15.88;;;1.40;;
46815;SDS011;32787;53.316;8.670;2022-09-17T13:42:29;11.68;;;1.90;;
46815;SDS011;32787;53.316;8.670;2022-09-17T13:45:07;13.10;;;1.60;;
46815;SDS011;32787;53.316;8.670;2022-09-17T13:47:36;14.38;;;1.85;;
46815;SDS011;32787;53.316;8.670;2022-09-17T14:08:30;15.88;;;2.58;;
46815;SDS011;32787;53.316;8.670;2022-09-17T14:13:46;16.65;;;2.33;;
46815;SDS011;32787;53.316;8.670;2022-09-17T14:30:36;16.23;;;1.83;;
46815;SDS011;32787;53.316;8.670;2022-09-17T14:35:42;15.50;;;1.98;;
46815;SDS011;32787;53.316;8.670;2022-09-17T14:40:48;23.55;;;2.92;;
46815;SDS011;32787;53.316;8.670;2022-09-17T14:46:14;16.08;;;2.67;;
46815;SDS011;32787;53.316;8.670;2022-09-17T14:48:46;12.98;;;1.55;;
46815;SDS011;32787;53.316;8.670;2022-09-17T14:53:41;11.57;;;1.70;;
46815;SDS011;32787;53.316;8.670;2022-09-17T14:56:08;9.40;;;1.70;;
46815;SDS011;32787;53.316;8.670;2022-09-17T14:58:39;11.52;;;1.55;;
46815;SDS011;32787;53.316;8.670;2022-09-17T15:01:44;7.28;;;1.05;;
46815;SDS011;32787;53.316;8.670;2022-09-17T15:04:23;14.68;;;1.65;;
46815;SDS011;32787;53.316;8.670;2022-09-17T15:06:49;10.30;;;1.50;;
46815;SDS011;32787;53.316;8.670;2022-09-17T15:09:24;12.50;;;1.23;;
46815;SDS011;32787;53.316;8.670;2022-09-17T15:11:53;11.27;;;1.63;;
46815;SDS011;32787;53.316;8.670;2022-09-17T15:14:29;12.50;;;1.80;;
46815;SDS011;32787;53.316;8.670;2022-09-17T15:16:58;13.90;;;1.83;;
46815;SDS011;32787;53.316;8.670;2022-09-17T15:19:26;13.50;;;1.92;;
46815;SDS011;32787;53.316;8.670;2022-09-17T15:22:04;19.15;;;2.55;;
46815;SDS011;32787;53.316;8.670;2022-09-17T15:29:59;15.60;;;2.13;;
46815;SDS011;32787;53.316;8.670;2022-09-17T15:37:41;14.30;;;1.65;;
46815;SDS011;32787;53.316;8.670;2022-09-17T15:40:22;11.63;;;2.00;;
46815;SDS011;32787;53.316;8.670;2022-09-17T15:45:47;10.13;;;1.63;;
46815;SDS011;32787;53.316;8.670;2022-09-17T15:50:58;13.65;;;1.88;;
46815;SDS011;32787;53.316;8.670;2022-09-17T15:53:29;12.05;;;1.90;;
46815;SDS011;32787;53.316;8.670;2022-09-17T15:56:03;11.00;;;1.67;;
46815;SDS011;32787;53.316;8.670;2022-09-17T16:08:44;12.70;;;1.60;;
46815;SDS011;32787;53.316;8.670;2022-09-17T16:11:16;16.60;;;1.63;;
46815;SDS011;32787;53.316;8.670;2022-09-17T16:13:47;18.48;;;2.33;;
46815;SDS011;32787;53.316;8.670;2022-09-17T16:18:56;17.08;;;1.65;;
46815;SDS011;32787;53.316;8.670;2022-09-17T16:21:22;9.25;;;1.70;;
46815;SDS011;32787;53.316;8.670;2022-09-17T16:23:47;14.38;;;2.22;;
46815;SDS011;32787;53.316;8.670;2022-09-17T16:26:20;14.50;;;1.98;;
46815;SDS011;32787;53.316;8.670;2022-09-17T16:28:50;9.80;;;1.83;;
46815;SDS011;32787;53.316;8.670;2022-09-17T16:31:18;14.77;;;1.88;;
46815;SDS011;32787;53.316;8.670;2022-09-17T16:33:45;14.90;;;1.83;;
46815;SDS011;32787;53.316;8.670;2022-09-17T16:36:10;10.48;;;1.80;;
46815;SDS011;32787;53.316;8.670;2022-09-17T16:38:36;6.60;;;1.30;;
46815;SDS011;32787;53.316;8.670;2022-09-17T16:41:05;7.70;;;1.02;;
46815;SDS011;32787;53.316;8.670;2022-09-17T16:43:31;13.85;;;1.65;;
46815;SDS011;32787;53.316;8.670;2022-09-17T16:46:05;10.88;;;1.60;;
46815;SDS011;32787;53.316;8.670;2022-09-17T16:48:32;7.85;;;1.10;;
46815;SDS011;32787;53.316;8.670;2022-09-17T16:50:58;14.35;;;2.08;;
46815;SDS011;32787;53.316;8.670;2022-09-17T16:53:25;13.20;;;1.73;;
46815;SDS011;32787;53.316;8.670;2022-09-17T16:55:51;11.70;;;1.45;;
46815;SDS011;32787;53.316;8.670;2022-09-17T16:58:17;14.98;;;1.38;;
46815;SDS011;32787;53.316;8.670;2022-09-17T17:00:43;12.43;;;1.55;;
46815;SDS011;32787;53.316;8.670;2022-09-17T17:03:12;10.75;;;1.75;;
46815;SDS011;32787;53.316;8.670;2022-09-17T17:05:39;13.43;;;1.65;;
46815;SDS011;32787;53.316;8.670;2022-09-17T17:08:05;9.27;;;1.70;;
46815;SDS011;32787;53.316;8.670;2022-09-17T17:10:32;12.88;;;1.80;;
46815;SDS011;32787;53.316;8.670;2022-09-17T17:12:59;15.45;;;1.77;;
46815;SDS011;32787;53.316;8.670;2022-09-17T17:15:24;11.55;;;1.98;;
46815;SDS011;32787;53.316;8.670;2022-09-17T17:17:51;13.95;;;2.60;;
46815;SDS011;32787;53.316;8.670;2022-09-17T17:20:17;13.82;;;1.90;;
46815;SDS011;32787;53.316;8.670;2022-09-17T17:22:43;14.60;;;1.85;;
46815;SDS011;32787;53.316;8.670;2022-09-17T17:25:09;14.48;;;2.22;;
46815;SDS011;32787;53.316;8.670;2022-09-17T17:27:36;11.43;;;1.77;;
46815;SDS011;32787;53.316;8.670;2022-09-17T17:30:03;14.05;;;2.25;;
46815;SDS011;32787;53.316;8.670;2022-09-17T17:32:31;16.40;;;1.83;;
46815;SDS011;32787;53.316;8.670;2022-09-17T17:35:00;13.82;;;1.88;;
46815;SDS011;32787;53.316;8.670;2022-09-17T17:37:26;13.60;;;2.00;;
46815;SDS011;32787;53.316;8.670;2022-09-17T17:39:52;9.60;;;2.05;;
46815;SDS011;32787;53.316;8.670;2022-09-17T17:42:18;15.90;;;1.90;;
46815;SDS011;32787;53.316;8.670;2022-09-17T17:44:44;14.90;;;1.73;;
46815;SDS011;32787;53.316;8.670;2022-09-17T17:47:11;12.48;;;1.73;;
46815;SDS011;32787;53.316;8.670;2022-09-17T17:49:37;14.55;;;1.73;;
46815;SDS011;32787;53.316;8.670;2022-09-17T17:52:03;14.18;;;2.53;;
46815;SDS011;32787;53.316;8.670;2022-09-17T17:54:29;13.32;;;2.00;;
46815;SDS011;32787;53.316;8.670;2022-09-17T17:56:55;10.25;;;1.92;;
46815;SDS011;32787;53.316;8.670;2022-09-17T17:59:21;20.30;;;2.33;;
46815;SDS011;32787;53.316;8.670;2022-09-17T18:01:46;14.82;;;2.03;;
46815;SDS011;32787;53.316;8.670;2022-09-17T18:04:12;19.00;;;2.33;;
46815;SDS011;32787;53.316;8.670;2022-09-17T18:06:38;14.93;;;2.20;;
46815;SDS011;32787;53.316;8.670;2022-09-17T18:09:04;16.00;;;1.90;;
46815;SDS011;32787;53.316;8.670;2022-09-17T18:11:30;16.30;;;2.75;;
46815;SDS011;32787;53.316;8.670;2022-09-17T18:13:58;14.82;;;2.67;;
46815;SDS011;32787;53.316;8.670;2022-09-17T18:16:26;22.40;;;3.10;;
46815;SDS011;32787;53.316;8.670;2022-09-17T18:18:53;13.45;;;1.75;;
46815;SDS011;32787;53.316;8.670;2022-09-17T18:21:21;16.98;;;2.10;;
46815;SDS011;32787;53.316;8.670;2022-09-17T18:23:48;11.38;;;1.80;;
46815;SDS011;32787;53.316;8.670;2022-09-17T18:26:15;13.52;;;1.60;;
46815;SDS011;32787;53.316;8.670;2022-09-17T18:28:42;10.77;;;1.70;;
46815;SDS011;32787;53.316;8.670;2022-09-17T18:31:28;13.52;;;1.60;;
46815;SDS011;32787;53.316;8.670;2022-09-17T18:36:31;9.38;;;1.50;;
46815;SDS011;32787;53.316;8.670;2022-09-17T18:38:58;11.80;;;1.40;;
46815;SDS011;32787;53.316;8.670;2022-09-17T18:41:33;9.85;;;1.45;;
46815;SDS011;32787;53.316;8.670;2022-09-17T18:44:04;10.20;;;1.33;;
46815;SDS011;32787;53.316;8.670;2022-09-17T18:46:31;13.77;;;1.60;;
46815;SDS011;32787;53.316;8.670;2022-09-17T18:48:56;14.10;;;1.80;;
46815;SDS011;32787;53.316;8.670;2022-09-17T18:51:23;15.15;;;1.90;;
46815;SDS011;32787;53.316;8.670;2022-09-17T18:53:50;14.57;;;2.15;;
46815;SDS011;32787;53.316;8.670;2022-09-17T18:58:44;12.63;;;1.58;;